createdAt,value
2022-09-18T00:00:51.255Z,92.13
2022-09-18T00:05:52.067Z,92.84
2022-09-18T00:10:52.802Z,94.48
2022-09-18T00:15:53.550Z,93.76
2022-09-18T00:20:54.286Z,94.48
2022-09-18T00:25:55.169Z,94.68
2022-09-18T00:30:56.014Z,94.68
2022-09-18T00:35:56.745Z,94.07
2022-09-18T00:40:57.564Z,94.07
2022-09-18T00:45:58.220Z,93.55
2022-09-18T00:50:58.960Z,92.94
2022-09-18T00:55:59.678Z,94.32
2022-09-18T01:01:00.563Z,92.58
2022-09-18T01:06:01.288Z,93.29
2022-09-18T01:11:01.964Z,93.24
2022-09-18T01:16:02.862Z,93.74
2022-09-18T01:21:03.592Z,93.74
2022-09-18T01:26:04.390Z,93.65
2022-09-18T01:31:05.241Z,93.85
2022-09-18T01:36:05.995Z,93.13
2022-09-18T01:41:06.722Z,93.48
2022-09-18T01:46:07.560Z,93.48
2022-09-18T01:51:08.365Z,92.77
2022-09-18T01:56:09.027Z,92.97
2022-09-18T02:01:09.838Z,93.28
2022-09-18T02:06:10.708Z,93.48
2022-09-18T02:11:11.395Z,93.59
2022-09-18T02:16:12.143Z,93.48
2022-09-18T02:21:12.934Z,94.71
2022-09-18T02:26:13.618Z,93.89
2022-09-18T02:31:14.442Z,94.10
2022-09-18T02:36:15.240Z,94.30
2022-09-18T02:41:15.930Z,94.81
2022-09-18T02:46:16.699Z,95.22
2022-09-18T02:51:17.430Z,94.81
2022-09-18T02:56:18.270Z,95.53
2022-09-18T03:01:19.039Z,95.02
2022-09-18T03:06:19.722Z,94.51
2022-09-18T03:11:20.473Z,95.32
2022-09-18T03:16:21.254Z,95.12
2022-09-18T03:21:22.007Z,95.43
2022-09-18T03:26:22.823Z,94.40
2022-09-18T03:31:23.550Z,94.20
2022-09-18T03:36:24.301Z,93.79
2022-09-18T03:41:25.124Z,93.99
2022-09-18T03:46:25.887Z,93.18
2022-09-18T03:51:26.641Z,93.59
2022-09-18T03:56:27.451Z,93.18
2022-09-18T04:01:28.144Z,93.07
2022-09-18T04:06:28.859Z,93.69
2022-09-18T04:11:29.862Z,93.07
2022-09-18T04:16:37.614Z,91.95
2022-09-18T04:21:31.261Z,91.89
2022-09-18T04:26:32.111Z,92.19
2022-09-18T04:31:32.524Z,92.10
2022-09-18T04:36:33.176Z,92.60
2022-09-18T04:41:33.950Z,92.10
2022-09-18T04:46:34.782Z,91.78
2022-09-18T04:51:35.532Z,92.60
2022-09-18T04:56:36.226Z,91.07
2022-09-18T05:01:37.003Z,91.17
2022-09-18T05:06:37.654Z,90.81
2022-09-18T05:11:38.336Z,90.97
2022-09-18T05:16:39.124Z,90.45
2022-09-18T05:21:39.897Z,90.56
2022-09-18T05:26:40.524Z,90.36
2022-09-18T05:31:41.281Z,90.45
2022-09-18T05:36:42.024Z,89.64
2022-09-18T05:41:42.646Z,89.03
2022-09-18T05:46:43.402Z,89.74
2022-09-18T05:51:44.056Z,89.37
2022-09-18T05:56:44.863Z,88.76
2022-09-18T06:01:47.358Z,88.41
2022-09-18T06:06:46.185Z,87.79
2022-09-18T06:11:46.859Z,87.18
2022-09-18T06:16:47.729Z,86.88
2022-09-18T06:21:48.371Z,86.57
2022-09-18T06:26:49.030Z,86.67
2022-09-18T06:31:49.923Z,86.05
2022-09-18T06:36:50.616Z,85.40
2022-09-18T06:41:51.268Z,84.89
2022-09-18T06:46:52.192Z,83.97
2022-09-18T06:51:52.832Z,90.49
2022-09-18T06:56:53.490Z,82.00
2022-09-18T07:01:54.237Z,81.18
2022-09-18T07:06:55.016Z,79.83
2022-09-18T07:11:55.608Z,80.18
2022-09-18T07:16:56.332Z,80.73
2022-09-18T07:21:57.191Z,80.32
2022-09-18T07:26:57.924Z,80.18
2022-09-18T07:31:58.630Z,79.25
2022-09-18T07:37:01.173Z,78.75
2022-09-18T07:41:59.811Z,78.71
2022-09-18T07:47:00.881Z,77.69
2022-09-18T07:52:01.156Z,76.93
2022-09-18T07:57:01.938Z,76.53
2022-09-18T08:02:02.722Z,75.78
2022-09-18T08:07:03.467Z,74.86
2022-09-18T08:12:04.215Z,74.21
2022-09-18T08:17:04.810Z,73.43
2022-09-18T08:22:05.490Z,72.55
2022-09-18T08:27:06.282Z,72.45
2022-09-18T08:32:09.869Z,73.54
2022-09-18T08:37:07.777Z,71.39
2022-09-18T08:42:08.507Z,72.17
2022-09-18T08:47:09.268Z,69.63
2022-09-18T08:52:09.999Z,70.34
2022-09-18T08:57:15.240Z,70.24
2022-09-18T09:02:11.430Z,70.14
2022-09-18T09:07:11.674Z,70.07
2022-09-18T09:12:13.465Z,68.52
2022-09-18T09:17:13.127Z,66.55
2022-09-18T09:22:15.006Z,66.63
2022-09-18T09:27:14.593Z,65.68
2022-09-18T09:32:15.274Z,65.91
2022-09-18T09:37:15.921Z,64.70
2022-09-18T09:42:16.691Z,63.95
2022-09-18T09:47:17.551Z,61.99
2022-09-18T09:52:18.277Z,62.51
2022-09-18T09:57:18.965Z,61.93
2022-09-18T10:02:19.827Z,64.59
2022-09-18T10:07:20.527Z,63.98
2022-09-18T10:12:21.238Z,64.26
2022-09-18T10:17:21.947Z,64.13
2022-09-18T10:22:23.271Z,62.82
2022-09-18T10:27:30.473Z,61.23
2022-09-18T10:32:24.360Z,61.55
2022-09-18T10:37:25.109Z,63.20
2022-09-18T10:42:26.837Z,63.98
2022-09-18T10:47:26.582Z,60.53
2022-09-18T10:52:27.267Z,60.33
2022-09-18T10:57:27.867Z,61.37
2022-09-18T11:02:28.909Z,65.33
2022-09-18T11:07:29.076Z,66.76
2022-09-18T11:12:29.760Z,64.01
2022-09-18T11:17:30.448Z,63.04
2022-09-18T11:22:31.235Z,61.34
2022-09-18T11:27:31.968Z,60.15
2022-09-18T11:32:32.626Z,61.40
2022-09-18T11:37:33.301Z,62.65
2022-09-18T11:42:34.044Z,61.91
2022-09-18T11:47:34.624Z,64.53
2022-09-18T11:52:35.306Z,65.18
2022-09-18T11:57:37.159Z,61.51
2022-09-18T12:02:36.894Z,57.83
2022-09-18T12:07:36.961Z,57.80
2022-09-18T12:12:37.144Z,59.34
2022-09-18T12:17:37.914Z,59.86
2022-09-18T12:22:38.574Z,65.30
2022-09-18T12:27:39.199Z,65.97
2022-09-18T12:32:40.071Z,65.57
2022-09-18T12:37:42.152Z,63.40
2022-09-18T12:42:42.641Z,59.82
2022-09-18T12:47:43.275Z,60.74
2022-09-18T12:53:00.506Z,59.28
2022-09-18T12:57:45.347Z,57.33
2022-09-18T13:02:47.108Z,57.53
2022-09-18T13:07:46.308Z,56.92
2022-09-18T13:12:45.945Z,57.20
2022-09-18T13:17:47.326Z,58.47
2022-09-18T13:22:51.928Z,56.87
2022-09-18T13:27:49.954Z,54.51
2022-09-18T13:32:49.346Z,55.93
2022-09-18T13:37:49.977Z,54.61
2022-09-18T13:42:51.847Z,55.93
2022-09-18T13:47:51.520Z,54.61
2022-09-18T13:52:52.191Z,55.05
2022-09-18T13:57:52.939Z,55.99
2022-09-18T14:02:53.808Z,56.70
2022-09-18T14:07:54.439Z,56.70
2022-09-18T14:12:55.251Z,55.78
2022-09-18T14:17:55.985Z,56.39
2022-09-18T14:22:56.789Z,56.62
2022-09-18T14:27:57.470Z,58.38
2022-09-18T14:32:58.748Z,59.09
2022-09-18T14:37:58.871Z,59.60
2022-09-18T14:42:59.837Z,59.30
2022-09-18T14:48:00.451Z,59.50
2022-09-18T14:53:01.462Z,59.70
2022-09-18T14:58:02.092Z,59.50
2022-09-18T15:03:02.823Z,60.34
2022-09-18T15:08:03.517Z,59.60
2022-09-18T15:13:05.536Z,58.56
2022-09-18T15:18:04.751Z,58.22
2022-09-18T15:23:05.579Z,58.33
2022-09-18T15:28:06.409Z,58.53
2022-09-18T15:33:08.205Z,59.27
2022-09-18T15:38:07.914Z,59.80
2022-09-18T15:43:08.733Z,59.39
2022-09-18T15:48:09.462Z,60.54
2022-09-18T15:53:10.208Z,61.59
2022-09-18T15:58:10.838Z,62.71
2022-09-18T16:03:11.525Z,63.45
2022-09-18T16:08:12.285Z,64.57
2022-09-18T16:13:13.045Z,65.69
2022-09-18T16:18:13.635Z,65.92
2022-09-18T16:23:14.328Z,66.44
2022-09-18T16:28:22.151Z,67.49
2022-09-18T16:33:15.772Z,67.46
2022-09-18T16:38:16.388Z,68.27
2022-09-18T16:43:17.062Z,68.07
2022-09-18T16:48:17.797Z,68.30
2022-09-18T16:53:18.443Z,68.74
2022-09-18T16:58:19.218Z,73.60
2022-09-18T17:03:19.963Z,77.11
2022-09-18T17:08:20.716Z,79.66
2022-09-18T17:13:21.330Z,81.34
2022-09-18T17:18:22.094Z,81.30
2022-09-18T17:23:22.902Z,80.11
2022-09-18T17:28:23.574Z,80.73
2022-09-18T17:33:24.197Z,80.52
2022-09-18T17:38:24.897Z,80.01
2022-09-18T17:43:25.795Z,79.80
2022-09-18T17:48:26.443Z,80.56
2022-09-18T17:53:27.183Z,82.29
2022-09-18T17:58:28.031Z,81.99
2022-09-18T18:03:28.696Z,84.65
2022-09-18T18:08:29.415Z,82.70
2022-09-18T18:13:30.301Z,84.03
2022-09-18T18:18:31.026Z,83.36
2022-09-18T18:23:31.767Z,85.40
2022-09-18T18:29:03.680Z,84.89
2022-09-18T18:34:05.435Z,85.20
2022-09-18T18:39:05.131Z,84.79
2022-09-18T18:44:05.853Z,83.70
2022-09-18T18:49:06.773Z,83.50
2022-09-18T18:54:07.500Z,83.09
2022-09-18T18:59:08.239Z,83.09
2022-09-18T19:04:09.052Z,83.91
2022-09-18T19:09:09.868Z,85.34
2022-09-18T19:14:10.639Z,85.85
2022-09-18T19:19:11.360Z,85.30
2022-09-18T19:24:12.136Z,86.73
2022-09-18T19:29:12.977Z,88.43
2022-09-18T19:34:13.658Z,86.55
2022-09-18T19:39:14.390Z,82.32
2022-09-18T19:44:15.145Z,83.01
2022-09-18T19:49:15.846Z,84.34
2022-09-18T19:54:16.552Z,84.07
2022-09-18T19:59:17.302Z,84.48
2022-09-18T20:04:17.990Z,85.30
2022-09-18T20:09:18.747Z,85.50
2022-09-18T20:14:19.540Z,85.91
2022-09-18T20:19:20.190Z,85.81
2022-09-18T20:24:20.968Z,85.81
2022-09-18T20:29:21.734Z,85.64
2022-09-18T20:34:22.435Z,86.16
2022-09-18T20:39:23.181Z,85.96
2022-09-18T20:44:23.879Z,86.46
2022-09-18T20:49:24.620Z,86.26
2022-09-18T20:54:25.337Z,86.88
2022-09-18T20:59:26.056Z,86.77
2022-09-18T21:04:26.761Z,86.46
2022-09-18T21:09:27.475Z,87.08
2022-09-18T21:14:28.297Z,86.88
2022-09-18T21:19:29.973Z,87.53
2022-09-18T21:24:29.699Z,87.53
2022-09-18T21:29:30.409Z,87.70
2022-09-18T21:34:31.117Z,87.53
2022-09-18T21:39:31.861Z,88.04
2022-09-18T21:44:39.743Z,87.63
2022-09-18T21:49:33.542Z,88.24
2022-09-18T21:54:34.431Z,88.24
2022-09-18T21:59:35.068Z,88.04
2022-09-18T22:04:35.910Z,88.80
2022-09-18T22:09:36.633Z,88.65
2022-09-18T22:14:37.352Z,88.65
2022-09-18T22:19:41.349Z,88.86
2022-09-18T22:24:38.907Z,89.06
2022-09-18T22:29:39.649Z,89.21
2022-09-18T22:34:40.334Z,89.11
2022-09-18T22:39:41.168Z,89.11
2022-09-18T22:44:41.897Z,89.51
2022-09-18T22:49:42.556Z,89.72
2022-09-18T22:54:43.366Z,89.83
2022-09-18T22:59:44.012Z,90.03
2022-09-18T23:04:44.725Z,90.23
2022-09-18T23:09:45.427Z,89.92
2022-09-18T23:14:46.252Z,90.23
2022-09-18T23:19:46.913Z,90.75
2022-09-18T23:24:47.641Z,90.34
2022-09-18T23:29:48.368Z,90.23
2022-09-18T23:34:49.089Z,90.03
2022-09-18T23:39:49.811Z,90.64
2022-09-18T23:44:50.528Z,89.92
2022-09-18T23:49:51.448Z,89.92
2022-09-18T23:54:52.102Z,90.03
2022-09-18T23:59:52.892Z,90.13
